MMZH/ZIH METAR and TAF weather

Enter ICAO airport designator
Station Type Date Time Source
MMZH METAR 2020/01/20 21:43 UTC NOAA

MMZH 202143Z 22010KT 7SM SCT020CB SCT250 32/25 A2992 RMK 8/903 HZY


Station Type Date Time Source
MMZH Decoded METAR 2020/01/20 21:43 UTC NOAA

Ixtapa-Zihuatanejo, Mexico (MMZH) 17-36N 101-28W
Jan 20, 2020 - 04:43 PM EST / 2020.01.20 2143 UTC
Wind: from the SW (220 degrees) at 12 MPH (10 KT):0
Visibility: 7 mile(s):0
Sky conditions: partly cloudy
Weather: Cumulonimbus clouds observed
Temperature: 89 F (32 C)
Heat index: 100.6 F (38.1 C):1
Dew Point: 77 F (25 C)
Relative Humidity: 66%
Pressure (altimeter): 29.92 in. Hg (1013 hPa)
ob: MMZH 202143Z 22010KT 7SM SCT020CB SCT250 32/25 A2992 RMK 8/903 HZY
cycle: 21

Station Type Date Time Source
MMZH TAF 2020/01/20 18:57 UTC NOAA

TAF COR MMZH 202157Z 2018/2118 18005KT 6SM HZ SCT090
BECMG 2020/2021 21010KT SCT020 SCT090
TEMPO 2022/2102 SCT020CB BKN090 BKN250
FM210200 00000KT P6SM SCT090
BECMG 2112/2113 6SM HZ

Example: see airport list